createdAt,value
2019-02-22T08:16:27.798Z,44.10
2019-02-22T08:17:28.719Z,46.50
2019-02-22T08:18:28.706Z,49.40
2019-02-22T08:19:28.711Z,48.30
2019-02-22T08:20:28.692Z,50.00
2019-02-22T08:21:28.751Z,48.50
2019-02-22T08:22:28.681Z,48.60
2019-02-22T08:23:28.663Z,49.60
2019-02-22T08:24:28.644Z,50.90
2019-02-22T08:25:28.645Z,49.10
2019-02-22T08:26:28.638Z,50.20
2019-02-22T08:27:28.616Z,50.00
2019-02-22T08:28:28.616Z,51.40
2019-02-22T08:29:28.600Z,51.30
2019-02-22T08:30:28.619Z,49.90
2019-02-22T08:31:28.597Z,51.30
2019-02-22T08:32:28.571Z,50.00
2019-02-22T08:33:28.571Z,50.70
2019-02-22T08:34:28.570Z,51.10
2019-02-22T08:35:28.533Z,50.80
2019-02-22T08:36:28.547Z,50.30
2019-02-22T08:37:28.521Z,50.70
2019-02-22T08:38:28.558Z,51.90
2019-02-22T08:39:28.488Z,50.50
2019-02-22T08:40:28.485Z,50.60
2019-02-22T08:41:28.901Z,50.60
2019-02-22T08:42:28.536Z,47.80
2019-02-22T08:43:31.671Z,47.20
2019-02-22T08:44:28.541Z,47.00
2019-02-22T08:45:28.664Z,46.30
2019-02-22T08:46:28.488Z,47.10
2019-02-22T08:47:28.500Z,48.00
2019-02-22T08:48:28.411Z,48.10
2019-02-22T08:49:28.384Z,48.90
2019-02-22T08:50:28.369Z,45.50
2019-02-22T08:51:28.381Z,46.50
2019-02-22T08:52:28.352Z,45.50
2019-02-22T08:53:28.341Z,44.40
2019-02-22T08:54:28.315Z,44.60
2019-02-22T08:55:28.308Z,43.60
2019-02-22T08:56:28.316Z,43.50
2019-02-22T08:57:28.352Z,44.20
2019-02-22T08:58:28.278Z,42.60
2019-02-22T08:59:28.311Z,45.10
2019-02-22T09:00:28.255Z,43.20
2019-02-22T09:01:28.266Z,42.60
2019-02-22T09:02:28.241Z,42.80
2019-02-22T09:03:28.235Z,43.00
2019-02-22T09:04:28.219Z,41.40
2019-02-22T09:05:28.224Z,41.30
2019-02-22T09:06:28.233Z,40.90
2019-02-22T09:07:28.191Z,42.40
2019-02-22T09:08:28.227Z,41.50
2019-02-22T09:09:28.164Z,39.20
2019-02-22T09:10:28.156Z,39.90
2019-02-22T09:11:28.184Z,39.60
2019-02-22T09:12:28.143Z,38.50
2019-02-22T09:13:28.121Z,38.10
2019-02-22T09:14:28.228Z,39.10
2019-02-22T09:15:28.107Z,39.20
2019-02-22T09:16:28.121Z,38.90
2019-02-22T09:17:28.089Z,39.30
2019-02-22T09:18:28.062Z,38.60
2019-02-22T09:19:28.064Z,38.80
2019-02-22T09:20:28.055Z,38.20
2019-02-22T09:21:28.033Z,38.60
2019-02-22T09:22:28.121Z,36.80
2019-02-22T09:23:28.059Z,37.10
2019-02-22T09:24:28.006Z,37.30
2019-02-22T09:25:28.001Z,36.80
2019-02-22T09:26:27.996Z,36.30
2019-02-22T09:27:27.977Z,35.70
2019-02-22T09:28:27.968Z,36.20
2019-02-22T09:29:27.963Z,33.60
2019-02-22T09:30:27.938Z,34.90
2019-02-22T09:31:27.936Z,36.30
2019-02-22T09:32:27.958Z,35.40
2019-02-22T09:33:27.941Z,33.80
2019-02-22T09:34:27.907Z,34.70
2019-02-22T09:35:27.992Z,33.50
2019-02-22T09:36:27.895Z,35.20
2019-02-22T09:37:27.883Z,34.10
2019-02-22T09:38:27.867Z,36.20
2019-02-22T09:39:27.833Z,34.70
2019-02-22T09:40:27.859Z,36.10
2019-02-22T09:41:27.840Z,33.80
2019-02-22T09:42:27.835Z,33.80
2019-02-22T09:43:27.797Z,33.00
2019-02-22T09:44:27.781Z,33.40
2019-02-22T09:45:27.764Z,33.00
2019-02-22T09:46:27.755Z,33.90
2019-02-22T09:47:27.767Z,32.40
2019-02-22T09:48:28.545Z,33.60
2019-02-22T09:49:27.730Z,34.60
2019-02-22T09:50:27.708Z,33.90
2019-02-22T09:51:27.714Z,32.80
2019-02-22T09:52:27.914Z,35.50
2019-02-22T09:53:27.803Z,34.60
2019-02-22T09:54:27.736Z,34.70
2019-02-22T09:55:27.695Z,33.90
2019-02-22T09:56:27.659Z,34.80
2019-02-22T09:57:27.668Z,35.10
2019-02-22T09:58:27.635Z,36.20
2019-02-22T09:59:27.630Z,34.30
2019-02-22T10:00:27.601Z,34.70
2019-02-22T10:01:27.602Z,36.80
2019-02-22T10:02:27.622Z,36.00
2019-02-22T10:03:27.589Z,36.20
2019-02-22T10:04:28.105Z,37.40
2019-02-22T10:05:27.565Z,36.40
2019-02-22T10:06:27.560Z,36.00
2019-02-22T10:07:27.580Z,36.50
2019-02-22T10:08:27.541Z,36.70
2019-02-22T10:09:27.700Z,36.20
2019-02-22T10:10:28.525Z,36.40
2019-02-22T10:11:27.631Z,35.50
2019-02-22T10:12:27.592Z,36.80
2019-02-22T10:13:27.669Z,37.40
2019-02-22T10:14:28.482Z,37.90
2019-02-22T10:15:27.642Z,37.60
2019-02-22T10:17:36.698Z,35.30
2019-02-22T10:18:37.634Z,37.00
2019-02-22T10:19:37.946Z,37.40
2019-02-22T10:20:37.641Z,37.40
2019-02-22T10:21:37.617Z,38.80
2019-02-22T10:22:37.707Z,37.60
2019-02-22T10:23:37.579Z,37.50
2019-02-22T10:24:37.704Z,37.90
2019-02-22T10:25:37.598Z,36.00
2019-02-22T10:26:37.554Z,36.70
2019-02-22T10:27:37.594Z,38.90
2019-02-22T10:28:37.541Z,38.10
2019-02-22T10:29:37.541Z,37.80
2019-02-22T10:30:37.574Z,37.20
2019-02-22T10:31:37.504Z,38.80
2019-02-22T10:32:37.523Z,38.40
2019-02-22T10:33:37.501Z,38.10
2019-02-22T10:34:37.469Z,38.10
2019-02-22T10:35:37.473Z,39.50
2019-02-22T10:36:44.751Z,38.40
2019-02-22T10:37:37.458Z,37.50
2019-02-22T10:38:37.419Z,38.30
2019-02-22T10:39:37.408Z,38.70
2019-02-22T10:40:39.256Z,37.70
2019-02-22T10:41:37.382Z,37.80
2019-02-22T10:42:37.393Z,38.50
2019-02-22T10:43:37.359Z,37.30
2019-02-22T10:44:37.361Z,38.50
2019-02-22T10:45:37.344Z,38.10
2019-02-22T10:46:37.378Z,39.50
2019-02-22T10:47:37.349Z,38.30
2019-02-22T10:48:37.328Z,38.40
2019-02-22T10:49:37.303Z,38.20
2019-02-22T10:50:37.295Z,37.40
2019-02-22T10:51:37.316Z,37.40
2019-02-22T10:52:37.290Z,38.90
2019-02-22T10:53:37.258Z,38.10
2019-02-22T10:54:37.239Z,38.20
2019-02-22T10:55:37.244Z,37.50
2019-02-22T10:56:39.175Z,36.40
2019-02-22T10:57:37.235Z,37.60
2019-02-22T10:58:37.219Z,37.40
2019-02-22T10:59:37.181Z,37.80
2019-02-22T11:00:37.184Z,36.30
2019-02-22T11:01:37.155Z,37.80
2019-02-22T11:02:37.175Z,36.70
2019-02-22T11:03:37.145Z,38.30
2019-02-22T11:04:37.134Z,37.10
2019-02-22T11:05:37.109Z,37.60
2019-02-22T11:06:37.116Z,38.30
2019-02-22T11:07:37.467Z,36.80
2019-02-22T11:08:37.089Z,37.60
2019-02-22T11:09:37.078Z,37.00
2019-02-22T11:10:37.060Z,37.90
2019-02-22T11:11:37.102Z,39.00
2019-02-22T11:12:37.053Z,38.30
2019-02-22T11:13:37.039Z,39.50
2019-02-22T11:14:37.018Z,39.90
2019-02-22T11:15:37.001Z,39.60
2019-02-22T11:16:36.995Z,39.70
2019-02-22T11:17:36.979Z,40.20
2019-02-22T11:18:39.310Z,39.60
2019-02-22T11:19:36.964Z,41.10
2019-02-22T11:20:36.947Z,38.30
2019-02-22T11:21:36.951Z,41.50
2019-02-22T11:22:36.936Z,38.80
2019-02-22T11:23:36.945Z,39.20
2019-02-22T11:24:36.919Z,36.70
2019-02-22T11:25:36.904Z,39.00
2019-02-22T11:26:36.875Z,38.80
2019-02-22T11:27:36.868Z,37.80
2019-02-22T11:28:36.906Z,38.70
2019-02-22T11:29:36.953Z,37.00
2019-02-22T11:30:36.928Z,38.00
2019-02-22T11:31:36.833Z,35.70
2019-02-22T11:32:36.948Z,36.20
2019-02-22T11:33:36.823Z,36.40
2019-02-22T11:34:36.798Z,35.20
2019-02-22T11:35:36.784Z,35.20
2019-02-22T11:36:36.793Z,36.20
2019-02-22T11:37:36.854Z,36.00
2019-02-22T11:38:36.777Z,36.30
2019-02-22T11:39:36.750Z,36.60
2019-02-22T11:40:36.735Z,37.30
2019-02-22T11:41:36.710Z,37.30
2019-02-22T11:42:36.709Z,38.80
2019-02-22T11:43:36.727Z,37.80
2019-02-22T11:44:40.152Z,36.50
2019-02-22T11:45:36.718Z,38.50
2019-02-22T11:46:36.676Z,38.30
2019-02-22T11:47:36.658Z,36.90
2019-02-22T11:48:36.665Z,36.70
2019-02-22T11:49:36.640Z,34.60
2019-02-22T11:50:36.623Z,37.10
2019-02-22T11:51:36.615Z,37.80
2019-02-22T11:52:36.609Z,38.10
2019-02-22T11:53:36.614Z,37.90
2019-02-22T11:54:36.627Z,37.70
2019-02-22T11:55:36.559Z,38.90
2019-02-22T11:56:36.571Z,40.10
2019-02-22T11:57:36.556Z,38.20
2019-02-22T11:58:36.558Z,39.10
2019-02-22T11:59:36.522Z,36.80
2019-02-22T12:00:36.505Z,37.20
2019-02-22T12:01:36.512Z,37.80
2019-02-22T12:02:36.500Z,38.20
2019-02-22T12:03:36.507Z,37.60
2019-02-22T12:04:36.469Z,36.20
2019-02-22T12:05:36.474Z,35.30
2019-02-22T12:06:36.462Z,36.60
2019-02-22T12:07:36.447Z,35.80
2019-02-22T12:08:36.440Z,35.80
2019-02-22T12:09:36.421Z,36.10
2019-02-22T12:10:36.392Z,35.60
2019-02-22T12:11:36.405Z,34.80
2019-02-22T12:12:36.374Z,34.70
2019-02-22T12:13:36.389Z,33.90
2019-02-22T12:14:36.352Z,33.60
2019-02-22T12:15:36.350Z,33.90
2019-02-22T12:16:37.198Z,35.20
2019-02-22T12:18:46.673Z,33.60
2019-02-22T12:19:47.643Z,34.20
2019-02-22T12:20:47.624Z,35.40
2019-02-22T12:21:47.672Z,34.70
2019-02-22T12:22:47.645Z,36.50
2019-02-22T12:23:48.043Z,36.90
2019-02-22T12:24:47.577Z,36.30
2019-02-22T12:25:47.604Z,37.30
2019-02-22T12:26:47.568Z,37.50
2019-02-22T12:27:47.588Z,36.10
2019-02-22T12:28:47.573Z,35.30
2019-02-22T12:29:47.557Z,37.20
2019-02-22T12:30:47.526Z,36.40
2019-02-22T12:31:47.505Z,36.10
2019-02-22T12:32:47.497Z,35.20
2019-02-22T12:33:47.508Z,36.50
2019-02-22T12:34:47.509Z,36.60
2019-02-22T12:35:47.469Z,37.80
2019-02-22T12:36:47.476Z,37.00
2019-02-22T12:37:47.440Z,39.00
2019-02-22T12:38:47.521Z,35.80
2019-02-22T12:39:47.456Z,35.20
2019-02-22T12:40:47.562Z,35.80
2019-02-22T12:41:47.438Z,34.50
2019-02-22T12:42:47.439Z,35.00
2019-02-22T12:43:47.419Z,34.40
2019-02-22T12:44:47.423Z,33.70
2019-02-22T12:45:47.439Z,33.80
2019-02-22T12:46:47.401Z,33.70
2019-02-22T12:47:47.390Z,33.10
2019-02-22T12:48:47.328Z,32.60
2019-02-22T12:49:47.330Z,35.30
2019-02-22T12:50:47.333Z,32.40
2019-02-22T12:51:47.298Z,33.00
2019-02-22T12:52:47.278Z,34.90
2019-02-22T12:53:47.272Z,33.20
2019-02-22T12:54:47.268Z,33.70
2019-02-22T12:55:47.256Z,33.70
2019-02-22T12:56:57.552Z,33.00
2019-02-22T12:57:47.237Z,33.20
2019-02-22T12:58:47.226Z,33.80
2019-02-22T12:59:47.371Z,34.80
2019-02-22T13:00:47.249Z,34.40
2019-02-22T13:01:47.262Z,35.20
2019-02-22T13:02:47.267Z,33.20
2019-02-22T13:03:47.173Z,34.70
2019-02-22T13:04:47.174Z,34.70
2019-02-22T13:05:47.172Z,33.20
2019-02-22T13:06:47.162Z,33.40
2019-02-22T13:07:47.118Z,33.90
2019-02-22T13:08:47.105Z,33.80
2019-02-22T13:09:47.121Z,33.50
2019-02-22T13:10:47.081Z,32.80
2019-02-22T13:11:47.107Z,33.00
2019-02-22T13:12:47.074Z,33.50
2019-02-22T13:13:47.053Z,33.70
2019-02-22T13:14:47.107Z,33.10
2019-02-22T13:15:47.077Z,31.70
2019-02-22T13:16:46.998Z,31.00
2019-02-22T13:17:47.017Z,30.60
2019-02-22T13:18:47.047Z,31.40
2019-02-22T13:19:47.005Z,32.50
2019-02-22T13:20:47.065Z,31.30
2019-02-22T13:21:47.195Z,30.50
2019-02-22T13:22:46.943Z,30.90
2019-02-22T13:23:47.038Z,29.70
2019-02-22T13:24:47.097Z,28.20
2019-02-22T13:25:46.915Z,28.70
2019-02-22T13:26:46.909Z,28.30
2019-02-22T13:27:46.890Z,27.60
2019-02-22T13:28:46.883Z,27.40
2019-02-22T13:29:46.900Z,27.50
2019-02-22T13:30:46.886Z,26.60
2019-02-22T13:31:46.869Z,25.60
2019-02-22T13:32:47.153Z,27.90
2019-02-22T13:33:46.866Z,26.90
2019-02-22T13:34:46.799Z,26.50
2019-02-22T13:35:47.154Z,26.10
2019-02-22T13:36:47.212Z,27.50
2019-02-22T13:37:46.775Z,28.40
2019-02-22T13:38:46.781Z,27.10
2019-02-22T13:39:46.753Z,28.20
2019-02-22T13:40:49.212Z,27.60
2019-02-22T13:41:46.746Z,27.90
2019-02-22T13:42:46.771Z,26.10
2019-02-22T13:43:47.065Z,26.90
2019-02-22T13:44:47.143Z,26.00
2019-02-22T13:45:46.736Z,27.60
2019-02-22T13:46:46.681Z,27.00
2019-02-22T13:47:46.666Z,28.50
2019-02-22T13:48:46.664Z,27.20
2019-02-22T13:49:46.648Z,27.00
2019-02-22T13:50:46.692Z,27.00
2019-02-22T13:51:46.651Z,26.90
2019-02-22T13:52:46.661Z,26.30
2019-02-22T13:53:46.626Z,26.60
2019-02-22T13:54:46.653Z,29.00
2019-02-22T13:55:46.643Z,28.10
2019-02-22T13:56:46.605Z,27.00
2019-02-22T13:57:46.572Z,26.80
2019-02-22T13:58:46.610Z,26.40
2019-02-22T13:59:48.095Z,27.20
2019-02-22T14:00:46.561Z,25.10
2019-02-22T14:01:46.553Z,25.30
2019-02-22T14:02:46.503Z,24.80
2019-02-22T14:03:46.521Z,24.80
2019-02-22T14:04:46.649Z,24.80
2019-02-22T14:05:46.492Z,25.80
2019-02-22T14:06:46.491Z,25.30
2019-02-22T14:07:46.463Z,24.60
2019-02-22T14:08:46.458Z,24.80
2019-02-22T14:09:46.463Z,24.90
2019-02-22T14:10:46.492Z,24.00
2019-02-22T14:11:46.415Z,24.50
2019-02-22T14:12:46.409Z,24.90
2019-02-22T14:13:46.385Z,24.50
2019-02-22T14:14:46.441Z,25.50
2019-02-22T14:15:46.372Z,24.00
2019-02-22T14:16:46.392Z,25.20
2019-02-22T14:17:46.360Z,24.10
2019-02-22T14:19:55.516Z,22.50
2019-02-22T14:20:56.518Z,22.80
2019-02-22T14:21:56.493Z,24.20
2019-02-22T14:22:56.478Z,23.50
2019-02-22T14:23:56.476Z,23.30
2019-02-22T14:24:56.470Z,22.90
2019-02-22T14:25:56.470Z,22.50
2019-02-22T14:26:56.440Z,22.30
2019-02-22T14:27:56.419Z,23.10
2019-02-22T14:28:56.421Z,23.00
2019-02-22T14:29:56.403Z,22.90
2019-02-22T14:30:56.398Z,22.60
2019-02-22T14:31:56.397Z,23.50
2019-02-22T14:32:56.385Z,23.10
2019-02-22T14:33:56.367Z,23.00
2019-02-22T14:34:56.356Z,23.50
2019-02-22T14:35:56.354Z,23.10
2019-02-22T14:36:56.334Z,22.60
2019-02-22T14:37:56.420Z,22.20
2019-02-22T14:38:56.308Z,22.90
2019-02-22T14:40:02.533Z,21.50
2019-02-22T14:40:56.324Z,21.50
2019-02-22T14:41:56.270Z,21.80
2019-02-22T14:42:56.275Z,22.30
2019-02-22T14:43:56.261Z,22.10
2019-02-22T14:44:56.246Z,21.50
2019-02-22T14:45:56.251Z,22.20
2019-02-22T14:46:56.227Z,21.60
2019-02-22T14:47:56.201Z,20.20
2019-02-22T14:48:56.198Z,19.70
2019-02-22T14:49:56.191Z,20.60
2019-02-22T14:50:56.210Z,19.80
2019-02-22T14:51:56.159Z,20.30
2019-02-22T14:52:56.163Z,20.80
2019-02-22T14:53:56.144Z,20.40
2019-02-22T14:54:56.134Z,20.20
2019-02-22T14:55:56.151Z,19.90
2019-02-22T14:56:56.111Z,20.70
2019-02-22T14:57:56.112Z,19.80
2019-02-22T14:58:56.777Z,20.30
2019-02-22T14:59:56.072Z,19.80
2019-02-22T15:00:56.087Z,18.90
2019-02-22T15:01:56.072Z,18.80
2019-02-22T15:02:56.061Z,18.60
2019-02-22T15:03:56.043Z,18.70
2019-02-22T15:04:56.759Z,17.00
2019-02-22T15:05:56.010Z,17.70
2019-02-22T15:06:56.003Z,18.20
2019-02-22T15:07:55.991Z,16.80
2019-02-22T15:08:55.989Z,17.20
2019-02-22T15:09:55.966Z,17.00
2019-02-22T15:10:55.970Z,16.50
2019-02-22T15:11:55.972Z,16.30
2019-02-22T15:12:55.937Z,15.90
2019-02-22T15:13:55.914Z,16.10
2019-02-22T15:14:55.904Z,16.30
2019-02-22T15:16:00.527Z,15.60
2019-02-22T15:16:55.906Z,15.50
2019-02-22T15:17:55.882Z,14.80
2019-02-22T15:18:55.869Z,15.40
2019-02-22T15:19:55.861Z,14.60
2019-02-22T15:20:55.840Z,15.20
2019-02-22T15:21:55.848Z,15.20
2019-02-22T15:22:55.825Z,15.80
2019-02-22T15:23:55.826Z,14.50
2019-02-22T15:24:55.796Z,14.20
2019-02-22T15:25:55.786Z,15.20
2019-02-22T15:26:55.802Z,14.30
2019-02-22T15:27:55.778Z,14.70
2019-02-22T15:28:55.752Z,15.20
2019-02-22T15:29:55.907Z,14.90
2019-02-22T15:30:55.746Z,14.30
2019-02-22T15:31:55.744Z,14.40
2019-02-22T15:32:55.708Z,14.80
2019-02-22T15:33:57.316Z,14.30
2019-02-22T15:34:55.695Z,14.60
2019-02-22T15:35:55.677Z,14.50
2019-02-22T15:36:55.694Z,13.50
2019-02-22T15:37:55.676Z,15.00
2019-02-22T15:38:55.680Z,14.00
2019-02-22T15:39:55.683Z,14.50
2019-02-22T15:40:55.675Z,14.70
2019-02-22T15:41:55.721Z,14.20
2019-02-22T15:42:55.611Z,14.60
2019-02-22T15:43:55.614Z,14.70
2019-02-22T15:44:55.613Z,14.50
2019-02-22T15:45:55.576Z,14.50
2019-02-22T15:46:55.578Z,14.90
2019-02-22T15:47:55.553Z,14.30
2019-02-22T15:48:55.549Z,14.20
2019-02-22T15:49:55.527Z,12.50
2019-02-22T15:50:55.522Z,13.60
2019-02-22T15:51:55.528Z,11.80
2019-02-22T15:52:55.497Z,12.40
2019-02-22T15:53:55.482Z,11.60
2019-02-22T15:54:55.479Z,11.90
2019-02-22T15:55:55.463Z,11.80
2019-02-22T15:56:55.472Z,11.30
2019-02-22T15:57:55.449Z,10.50
2019-02-22T15:58:55.435Z,10.90
2019-02-22T15:59:55.420Z,11.30
2019-02-22T16:00:55.415Z,10.80
2019-02-22T16:01:56.143Z,10.90
2019-02-22T16:02:55.389Z,10.10
2019-02-22T16:03:55.379Z,10.70
2019-02-22T16:04:55.376Z,10.00
2019-02-22T16:05:55.350Z,10.10
2019-02-22T16:06:55.371Z,10.40
2019-02-22T16:07:55.341Z,11.10
2019-02-22T16:08:55.325Z,10.60
2019-02-22T16:09:55.316Z,11.90
2019-02-22T16:10:55.295Z,10.80
2019-02-22T16:11:55.313Z,10.60
2019-02-22T16:12:55.305Z,11.00
2019-02-22T16:13:55.277Z,10.50
2019-02-22T16:14:55.258Z,10.20
2019-02-22T16:15:55.249Z,10.30
2019-02-22T16:16:55.253Z,9.60
2019-02-22T16:17:55.222Z,9.60
2019-02-22T16:18:55.221Z,9.40
2019-02-22T16:21:04.402Z,8.40
2019-02-22T16:22:05.400Z,8.50
2019-02-22T16:23:05.360Z,9.30
2019-02-22T16:24:05.367Z,8.70
2019-02-22T16:25:05.338Z,8.50
2019-02-22T16:26:05.342Z,8.80
2019-02-22T16:27:05.459Z,9.10
2019-02-22T16:28:05.403Z,9.00
2019-02-22T16:29:05.307Z,8.70
2019-02-22T16:30:05.344Z,8.90
2019-02-22T16:31:05.289Z,9.10
2019-02-22T16:32:05.335Z,9.30
2019-02-22T16:33:05.274Z,8.80
2019-02-22T16:34:05.269Z,8.80
2019-02-22T16:35:05.240Z,8.90
2019-02-22T16:36:05.427Z,9.00
2019-02-22T16:37:05.246Z,8.60
2019-02-22T16:38:05.202Z,8.60
2019-02-22T16:39:05.190Z,9.40
2019-02-22T16:40:05.204Z,9.10
2019-02-22T16:41:05.176Z,8.60
2019-02-22T16:42:05.193Z,8.70
2019-02-22T16:43:05.162Z,9.20
2019-02-22T16:44:05.146Z,9.50
2019-02-22T16:45:05.244Z,9.20
2019-02-22T16:46:05.122Z,9.10
2019-02-22T16:47:05.131Z,9.60
2019-02-22T16:48:05.100Z,9.60
2019-02-22T16:49:05.086Z,9.50
2019-02-22T16:50:05.097Z,9.50
2019-02-22T16:51:05.101Z,9.30
2019-02-22T16:52:05.089Z,8.90
2019-02-22T16:53:05.076Z,9.00
2019-02-22T16:54:05.037Z,8.90
2019-02-22T16:55:05.025Z,8.80
2019-02-22T16:56:05.023Z,9.20
2019-02-22T16:57:05.009Z,10.50
2019-02-22T16:58:05.015Z,10.00
2019-02-22T16:59:04.981Z,10.50
2019-02-22T17:00:04.973Z,10.00
2019-02-22T17:01:04.968Z,9.50
2019-02-22T17:02:04.954Z,9.90
2019-02-22T17:03:04.963Z,9.90
2019-02-22T17:04:04.936Z,10.20
2019-02-22T17:05:04.937Z,10.50
2019-02-22T17:06:04.901Z,11.00
2019-02-22T17:07:04.920Z,10.70
2019-02-22T17:08:04.902Z,10.70
2019-02-22T17:09:04.881Z,11.30
2019-02-22T17:10:04.860Z,11.20
2019-02-22T17:11:04.864Z,11.10
2019-02-22T17:12:06.706Z,11.20
2019-02-22T17:13:04.862Z,11.40
2019-02-22T17:14:04.820Z,11.40
2019-02-22T17:15:04.812Z,11.00
2019-02-22T17:16:04.800Z,11.40
2019-02-22T17:17:04.793Z,10.60
2019-02-22T17:18:04.804Z,11.00
2019-02-22T17:19:04.766Z,10.20
2019-02-22T17:20:04.756Z,10.20
2019-02-22T17:21:04.737Z,10.10
2019-02-22T17:22:04.729Z,10.40
2019-02-22T17:23:04.748Z,10.70
2019-02-22T17:24:04.722Z,10.50
2019-02-22T17:25:04.699Z,10.30
2019-02-22T17:26:04.698Z,11.00
2019-02-22T17:27:04.681Z,10.90
2019-02-22T17:28:04.690Z,10.70
2019-02-22T17:29:04.663Z,10.60
2019-02-22T17:30:04.649Z,10.70
2019-02-22T17:31:04.633Z,11.10
2019-02-22T17:32:04.621Z,11.40
2019-02-22T17:33:04.631Z,12.30
2019-02-22T17:34:04.616Z,11.80
2019-02-22T17:35:04.589Z,13.20
2019-02-22T17:36:04.587Z,12.70
2019-02-22T17:37:04.569Z,13.00
2019-02-22T17:38:04.596Z,12.10
2019-02-22T17:39:04.558Z,12.00
2019-02-22T17:40:04.542Z,11.20
2019-02-22T17:41:04.537Z,11.60
2019-02-22T17:42:04.525Z,12.00
2019-02-22T17:43:04.528Z,12.00
2019-02-22T17:44:04.494Z,11.90
2019-02-22T17:45:04.488Z,11.50
2019-02-22T17:46:04.474Z,11.70
2019-02-22T17:47:06.528Z,12.10
2019-02-22T17:48:04.479Z,11.70
2019-02-22T17:49:04.435Z,11.30
2019-02-22T17:50:04.434Z,12.20
2019-02-22T17:51:04.431Z,11.80
2019-02-22T17:52:04.418Z,12.10
2019-02-22T17:53:04.417Z,12.60
2019-02-22T17:54:04.400Z,12.10
2019-02-22T17:55:04.383Z,12.30
2019-02-22T17:56:04.371Z,12.30
2019-02-22T17:57:04.359Z,13.10
2019-02-22T17:58:04.371Z,12.60
2019-02-22T17:59:04.350Z,12.10
2019-02-22T18:00:04.349Z,12.10
2019-02-22T18:01:04.319Z,13.10
2019-02-22T18:02:04.293Z,12.00
2019-02-22T18:03:04.314Z,12.10
2019-02-22T18:04:04.288Z,11.60
2019-02-22T18:05:04.275Z,11.90
2019-02-22T18:06:04.259Z,11.80
2019-02-22T18:07:04.250Z,12.20
2019-02-22T18:08:04.252Z,12.00
2019-02-22T18:09:04.234Z,12.00
2019-02-22T18:10:04.228Z,12.00
2019-02-22T18:11:04.221Z,11.30
2019-02-22T18:12:04.201Z,12.20
2019-02-22T18:13:04.215Z,12.10
2019-02-22T18:14:04.181Z,13.10
2019-02-22T18:15:04.653Z,13.30
2019-02-22T18:16:04.188Z,12.40
2019-02-22T18:17:08.474Z,13.20
2019-02-22T18:18:04.141Z,13.70
2019-02-22T18:19:04.123Z,13.30
2019-02-22T18:20:04.114Z,14.00
2019-02-22T18:22:13.311Z,11.90
2019-02-22T18:23:14.313Z,13.30
2019-02-22T18:24:14.276Z,14.20
2019-02-22T18:25:14.266Z,13.50
2019-02-22T18:26:14.256Z,13.60
2019-02-22T18:27:14.266Z,13.50
2019-02-22T18:28:14.243Z,13.60
2019-02-22T18:29:14.230Z,13.50
2019-02-22T18:30:14.237Z,13.10
2019-02-22T18:31:14.212Z,13.40
2019-02-22T18:32:14.199Z,12.70
2019-02-22T18:33:14.207Z,12.30
2019-02-22T18:34:14.169Z,12.60
2019-02-22T18:35:14.164Z,12.80
2019-02-22T18:36:14.153Z,12.90
2019-02-22T18:37:14.135Z,12.50
2019-02-22T18:38:15.265Z,13.90
2019-02-22T18:39:14.125Z,15.00
2019-02-22T18:40:14.102Z,14.20
2019-02-22T18:41:14.099Z,13.90
2019-02-22T18:42:14.090Z,14.00
2019-02-22T18:43:14.101Z,13.70
2019-02-22T18:44:14.062Z,14.60
2019-02-22T18:45:14.054Z,13.00
2019-02-22T18:46:14.031Z,13.90
2019-02-22T18:47:19.334Z,13.20
2019-02-22T18:48:14.022Z,14.10
2019-02-22T18:49:14.008Z,15.00
2019-02-22T18:50:13.997Z,13.50
2019-02-22T18:51:13.989Z,14.90
2019-02-22T18:52:13.967Z,15.00
2019-02-22T18:53:13.958Z,18.10
2019-02-22T18:54:13.969Z,23.40
2019-02-22T18:55:13.933Z,21.00
2019-02-22T18:56:13.930Z,23.30
2019-02-22T18:57:13.913Z,21.20
2019-02-22T18:58:13.902Z,19.70
2019-02-22T18:59:13.916Z,17.30
2019-02-22T19:00:13.886Z,16.80
2019-02-22T19:01:13.875Z,15.60
2019-02-22T19:02:13.856Z,14.70
2019-02-22T19:03:13.855Z,15.40
2019-02-22T19:04:13.872Z,14.40
2019-02-22T19:05:13.837Z,14.20
2019-02-22T19:06:13.823Z,14.30
2019-02-22T19:07:13.807Z,13.90
2019-02-22T19:08:13.795Z,14.40
2019-02-22T19:09:13.803Z,14.50
2019-02-22T19:10:13.772Z,14.30
2019-02-22T19:11:13.769Z,14.60
2019-02-22T19:12:13.753Z,15.10
2019-02-22T19:13:13.738Z,14.40
2019-02-22T19:14:13.750Z,14.60
2019-02-22T19:15:13.715Z,15.00
2019-02-22T19:16:13.710Z,15.20
2019-02-22T19:17:13.689Z,15.70
2019-02-22T19:18:13.681Z,15.50
2019-02-22T19:19:14.664Z,16.00
2019-02-22T19:20:13.662Z,15.80
2019-02-22T19:21:13.682Z,15.70
2019-02-22T19:22:13.634Z,17.00
2019-02-22T19:23:13.639Z,17.60
2019-02-22T19:24:13.633Z,17.30
2019-02-22T19:25:13.617Z,16.70
2019-02-22T19:26:13.601Z,16.20
2019-02-22T19:27:13.608Z,16.80
2019-02-22T19:28:13.572Z,17.10
2019-02-22T19:29:13.590Z,16.70
2019-02-22T19:30:13.570Z,17.70
2019-02-22T19:31:13.548Z,16.90
2019-02-22T19:32:13.550Z,17.10
2019-02-22T19:33:13.518Z,17.70
2019-02-22T19:34:13.534Z,17.90
2019-02-22T19:35:13.494Z,17.80
2019-02-22T19:36:13.487Z,17.50
2019-02-22T19:37:13.475Z,18.30
2019-02-22T19:38:13.469Z,18.30
2019-02-22T19:39:13.555Z,18.60
2019-02-22T19:40:13.436Z,18.30
2019-02-22T19:41:13.423Z,18.70
2019-02-22T19:42:13.435Z,19.00
2019-02-22T19:43:13.411Z,19.60
2019-02-22T19:44:13.433Z,19.40
2019-02-22T19:45:13.392Z,19.30
2019-02-22T19:46:13.386Z,19.50
2019-02-22T19:47:13.372Z,20.30
2019-02-22T19:48:13.359Z,20.70
2019-02-22T19:49:13.363Z,19.10
2019-02-22T19:50:13.332Z,21.30
2019-02-22T19:51:13.315Z,20.40
2019-02-22T19:52:13.315Z,21.10
2019-02-22T19:53:13.300Z,20.50
2019-02-22T19:54:13.324Z,20.60
2019-02-22T19:55:13.281Z,21.30
2019-02-22T19:56:13.276Z,20.90
2019-02-22T19:57:13.263Z,20.90
2019-02-22T19:58:13.242Z,20.80
2019-02-22T19:59:13.251Z,21.20
2019-02-22T20:00:13.230Z,21.70
2019-02-22T20:01:13.215Z,21.40
2019-02-22T20:02:13.207Z,22.70
2019-02-22T20:03:13.189Z,22.30
2019-02-22T20:04:13.197Z,21.90
2019-02-22T20:05:13.178Z,22.00
2019-02-22T20:06:13.169Z,21.60
2019-02-22T20:07:13.154Z,21.90
2019-02-22T20:08:13.164Z,23.00
2019-02-22T20:09:13.147Z,23.30
2019-02-22T20:10:17.754Z,22.80
2019-02-22T20:11:13.104Z,22.50
2019-02-22T20:12:13.086Z,22.00
2019-02-22T20:13:13.087Z,23.00
2019-02-22T20:14:13.090Z,22.80
2019-02-22T20:15:13.074Z,22.80
2019-02-22T20:16:13.054Z,23.00
2019-02-22T20:17:13.030Z,23.00
2019-02-22T20:18:13.024Z,23.20
2019-02-22T20:19:13.011Z,23.00
2019-02-22T20:20:13.007Z,24.60
2019-02-22T20:21:12.986Z,22.80
2019-02-22T20:23:22.476Z,21.60
2019-02-22T20:24:23.387Z,22.90
2019-02-22T20:25:23.345Z,25.00
2019-02-22T20:26:23.334Z,24.30
2019-02-22T20:27:23.323Z,24.20
2019-02-22T20:28:24.752Z,25.00
2019-02-22T20:29:23.313Z,24.40
2019-02-22T20:30:23.296Z,25.50
2019-02-22T20:31:23.280Z,25.40
2019-02-22T20:32:23.271Z,26.20
2019-02-22T20:33:23.254Z,25.00
2019-02-22T20:34:23.278Z,25.80
2019-02-22T20:35:23.230Z,26.00
2019-02-22T20:36:28.328Z,26.00
2019-02-22T20:37:23.307Z,25.40
2019-02-22T20:38:23.204Z,25.70
2019-02-22T20:39:23.213Z,26.70
2019-02-22T20:40:23.939Z,26.10
2019-02-22T20:41:23.170Z,27.80
2019-02-22T20:42:23.156Z,25.50
2019-02-22T20:43:23.150Z,26.40
2019-02-22T20:44:23.161Z,25.90
2019-02-22T20:45:23.126Z,25.80
2019-02-22T20:46:23.125Z,26.00
2019-02-22T20:47:23.105Z,27.00
2019-02-22T20:48:23.094Z,26.10
2019-02-22T20:49:23.107Z,25.60
2019-02-22T20:50:23.066Z,26.40
2019-02-22T20:51:23.061Z,25.00
2019-02-22T20:52:23.039Z,26.00
2019-02-22T20:53:23.038Z,26.00
2019-02-22T20:54:23.033Z,26.10
2019-02-22T20:55:23.026Z,25.40
2019-02-22T20:56:23.002Z,27.10
2019-02-22T20:57:22.997Z,26.90
2019-02-22T20:58:23.923Z,25.30
2019-02-22T20:59:22.971Z,27.00
2019-02-22T21:00:22.992Z,26.30
2019-02-22T21:01:22.959Z,25.50
2019-02-22T21:02:22.940Z,26.00
2019-02-22T21:03:22.940Z,25.50
2019-02-22T21:04:22.915Z,25.60
2019-02-22T21:05:22.936Z,25.30
2019-02-22T21:06:22.903Z,25.00
2019-02-22T21:07:22.874Z,24.70
2019-02-22T21:08:24.725Z,25.50
2019-02-22T21:09:22.852Z,25.10
2019-02-22T21:10:22.877Z,25.60
2019-02-22T21:11:22.859Z,25.20
2019-02-22T21:12:22.838Z,24.80
2019-02-22T21:13:22.827Z,24.10
2019-02-22T21:14:22.810Z,24.70
2019-02-22T21:15:22.821Z,25.20
2019-02-22T21:16:22.790Z,23.80
2019-02-22T21:17:22.768Z,24.00